Time;durP1;ratioP1;P1;durP2;ratioP2;P2;SDS_P1;SDS_P2;PMS_P1;PMS_P2;Temp;Humidity;BMP_temperature;BMP_pressure;BME280_temperature;BME280_humidity;BME280_pressure;Samples;Min_cycle;Max_cycle;Signal;HPM_P1;HPM_P2
2022/10/09 00:01:17;;;;;;;;;;;10.80;99.90;;;;;;5106820;27;38969;-59
2022/10/09 00:03:47;;;;;;;;;;;10.70;99.90;;;;;;5107871;27;37129;-58
2022/10/09 00:06:15;;;;;;;;;;;10.70;99.90;;;;;;5108249;27;38546;-59
2022/10/09 00:08:43;;;;;;;;;;;10.70;99.90;;;;;;5106253;27;37262;-58
2022/10/09 00:11:12;;;;;;;;;;;10.70;99.90;;;;;;5107497;27;36532;-57
2022/10/09 00:13:39;;;;;;;;;;;10.70;99.90;;;;;;5107941;27;38440;-58
2022/10/09 00:16:07;;;;;;;;;;;10.60;99.90;;;;;;5108348;27;38469;-58
2022/10/09 00:18:34;;;;;;;;;;;10.60;99.90;;;;;;5107278;27;38783;-59
2022/10/09 00:21:03;;;;;;;;;;;10.60;99.90;;;;;;5106864;27;39145;-58
2022/10/09 00:23:31;;;;;;;;;;;10.60;99.90;;;;;;5107443;27;38171;-57
2022/10/09 00:25:59;;;;;;;;;;;10.50;99.90;;;;;;5108102;27;36381;-57
2022/10/09 00:28:27;;;;;;;;;;;10.50;99.90;;;;;;5107617;27;38871;-57
2022/10/09 00:30:54;;;;;;;;;;;10.50;99.90;;;;;;5106480;27;37914;-58
2022/10/09 00:33:21;;;;;;;;;;;10.50;99.90;;;;;;5108113;27;39224;-57
2022/10/09 00:35:48;;;;;;;;;;;10.50;99.90;;;;;;5108227;27;36259;-59
2022/10/09 00:38:17;;;;;;;;;;;10.50;99.90;;;;;;5109073;27;36302;-57
2022/10/09 00:40:44;;;;;;;;;;;10.50;99.90;;;;;;5109759;27;38017;-59
2022/10/09 00:43:14;;;;;;;;;;;10.60;99.90;;;;;;5112092;27;37125;-58
2022/10/09 00:45:43;;;;;;;;;;;10.50;99.90;;;;;;5108904;27;38519;-57
2022/10/09 00:48:12;;;;;;;;;;;10.50;99.90;;;;;;5111927;27;36129;-57
2022/10/09 00:50:40;;;;;;;;;;;10.50;99.90;;;;;;5110712;27;37174;-59
2022/10/09 00:53:07;;;;;;;;;;;10.50;99.90;;;;;;5111347;27;38729;-58
2022/10/09 00:55:37;;;;;;;;;;;10.50;99.90;;;;;;5111466;27;37753;-58
2022/10/09 00:58:05;;;;;;;;;;;10.50;99.90;;;;;;5110141;27;37219;-57
2022/10/09 01:00:32;;;;;;;;;;;10.50;99.90;;;;;;5110736;27;38537;-57
2022/10/09 01:02:59;;;;;;;;;;;10.50;99.90;;;;;;5111108;27;37126;-57
2022/10/09 01:05:32;;;;;;;;;;;10.50;99.90;;;;;;5110476;27;37651;-57
2022/10/09 01:08:02;;;;;;;;;;;10.50;99.90;;;;;;5109914;27;36675;-57
2022/10/09 01:10:31;;;;;;;;;;;10.50;99.90;;;;;;5109258;27;37937;-57
2022/10/09 01:13:06;;;;;;;;;;;10.50;99.90;;;;;;5112032;27;39813;-58
2022/10/09 01:15:35;;;;;;;;;;;10.50;99.90;;;;;;5110738;27;38058;-58
2022/10/09 01:18:06;;;;;;;;;;;10.40;99.90;;;;;;5111114;27;35169;-58
2022/10/09 01:20:37;;;;;;;;;;;10.40;99.90;;;;;;5109220;27;41011;-58
2022/10/09 01:23:23;;;;;;;;;;;10.30;99.90;;;;;;5110057;27;37659;-59
2022/10/09 01:25:56;;;;;;;;;;;10.40;99.90;;;;;;5110656;27;39407;-57
2022/10/09 01:28:27;;;;;;;;;;;10.40;99.90;;;;;;5109088;27;35330;-57
2022/10/09 01:30:55;;;;;;;;;;;10.30;99.90;;;;;;5108970;27;37210;-59
2022/10/09 01:33:22;;;;;;;;;;;10.30;99.90;;;;;;5110696;27;38556;-58
2022/10/09 01:35:49;;;;;;;;;;;10.20;99.90;;;;;;5111305;27;37558;-58
2022/10/09 01:38:16;;;;;;;;;;;10.30;99.90;;;;;;5110338;27;38727;-59
2022/10/09 01:40:44;;;;;;;;;;;10.30;99.90;;;;;;5110435;27;37727;-57
2022/10/09 01:43:11;;;;;;;;;;;10.30;99.90;;;;;;5110390;27;38137;-57
2022/10/09 01:45:40;;;;;;;;;;;10.20;99.90;;;;;;5110737;27;39077;-57
2022/10/09 01:48:09;;;;;;;;;;;10.20;99.90;;;;;;5110527;27;37439;-59
2022/10/09 01:50:40;;;;;;;;;;;10.20;99.90;;;;;;5109993;27;37306;-57
2022/10/09 01:53:09;;;;;;;;;;;10.20;99.90;;;;;;5109320;27;39411;-57
2022/10/09 01:55:38;;;;;;;;;;;10.20;99.90;;;;;;5109774;27;37813;-58
2022/10/09 01:58:10;;;;;;;;;;;10.20;99.90;;;;;;5110286;27;35106;-58
2022/10/09 02:00:37;;;;;;;;;;;10.10;99.90;;;;;;5108858;27;36646;-58
2022/10/09 02:03:07;;;;;;;;;;;10.10;99.90;;;;;;5109898;27;38476;-58
2022/10/09 02:05:35;;;;;;;;;;;10.10;99.90;;;;;;5108597;27;38399;-59
2022/10/09 02:08:02;;;;;;;;;;;10.10;99.90;;;;;;5110182;27;35074;-57
2022/10/09 02:10:30;;;;;;;;;;;10.10;99.90;;;;;;5110429;27;37656;-57
2022/10/09 02:12:58;;;;;;;;;;;10.10;99.90;;;;;;5110065;27;39342;-57
2022/10/09 02:15:27;;;;;;;;;;;10.00;99.90;;;;;;5109361;27;37256;-58
2022/10/09 02:17:55;;;;;;;;;;;10.00;99.90;;;;;;5108326;27;38220;-57
2022/10/09 02:20:26;;;;;;;;;;;10.00;99.90;;;;;;5109946;27;37557;-57
2022/10/09 02:22:55;;;;;;;;;;;10.00;99.90;;;;;;5107413;27;37940;-57
2022/10/09 02:25:22;;;;;;;;;;;9.90;99.90;;;;;;5109315;27;38957;-57
2022/10/09 02:27:49;;;;;;;;;;;9.90;99.90;;;;;;5110880;27;37688;-57
2022/10/09 02:30:17;;;;;;;;;;;10.00;99.90;;;;;;5109593;27;37569;-57
2022/10/09 02:32:44;;;;;;;;;;;9.90;99.90;;;;;;5108303;27;37025;-57
2022/10/09 02:35:11;;;;;;;;;;;9.90;99.90;;;;;;5109281;27;38759;-58
2022/10/09 02:37:39;;;;;;;;;;;9.90;99.90;;;;;;5110155;27;36400;-58
2022/10/09 02:40:08;;;;;;;;;;;10.00;99.90;;;;;;5109628;27;35974;-59
2022/10/09 02:42:35;;;;;;;;;;;9.90;99.90;;;;;;5110484;27;38343;-57
2022/10/09 02:45:02;;;;;;;;;;;9.90;99.90;;;;;;5109222;27;38267;-57
2022/10/09 02:47:29;;;;;;;;;;;10.00;99.90;;;;;;5109011;27;37866;-59
2022/10/09 02:49:56;;;;;;;;;;;10.00;99.90;;;;;;5109849;27;37930;-59
2022/10/09 02:52:23;;;;;;;;;;;9.90;99.90;;;;;;5110300;27;36974;-57
2022/10/09 02:54:51;;;;;;;;;;;10.00;99.90;;;;;;5110368;27;36463;-57
2022/10/09 02:57:18;;;;;;;;;;;10.00;99.90;;;;;;5110067;27;36743;-57
2022/10/09 02:59:45;;;;;;;;;;;9.90;99.90;;;;;;5109224;27;36463;-57
2022/10/09 03:02:12;;;;;;;;;;;9.90;99.90;;;;;;5108703;27;38979;-57
2022/10/09 03:04:39;;;;;;;;;;;9.90;99.90;;;;;;5109270;27;36347;-58
2022/10/09 03:07:06;;;;;;;;;;;9.90;99.90;;;;;;5108980;27;36126;-59
2022/10/09 03:09:33;;;;;;;;;;;9.90;99.90;;;;;;5108554;27;37866;-60
2022/10/09 03:12:02;;;;;;;;;;;9.90;99.90;;;;;;5110580;27;39393;-57
2022/10/09 03:14:29;;;;;;;;;;;9.90;99.90;;;;;;5108001;27;37526;-57
2022/10/09 03:16:56;;;;;;;;;;;9.90;99.90;;;;;;5110272;27;35123;-58
2022/10/09 03:19:23;;;;;;;;;;;9.90;99.90;;;;;;5109843;27;38993;-57
2022/10/09 03:21:50;;;;;;;;;;;9.90;99.90;;;;;;5109326;27;38303;-58
2022/10/09 03:24:17;;;;;;;;;;;9.90;99.90;;;;;;5108825;27;37681;-58
2022/10/09 03:26:44;;;;;;;;;;;9.90;99.90;;;;;;5107334;27;37451;-58
2022/10/09 03:29:13;;;;;;;;;;;9.90;99.90;;;;;;5109180;27;37958;-58
2022/10/09 03:31:40;;;;;;;;;;;9.90;99.90;;;;;;5109303;27;39967;-57
2022/10/09 03:34:07;;;;;;;;;;;9.90;99.90;;;;;;5108792;27;38169;-57
2022/10/09 03:36:34;;;;;;;;;;;9.80;99.90;;;;;;5108616;27;37179;-59
2022/10/09 03:39:01;;;;;;;;;;;9.90;99.90;;;;;;5107962;27;37849;-58
2022/10/09 03:41:28;;;;;;;;;;;9.70;99.90;;;;;;5110150;27;39025;-58
2022/10/09 03:43:55;;;;;;;;;;;9.70;99.90;;;;;;5108963;27;37544;-57
2022/10/09 03:46:23;;;;;;;;;;;9.70;99.90;;;;;;5109442;27;36719;-57
2022/10/09 03:48:50;;;;;;;;;;;9.60;99.90;;;;;;5109407;27;38072;-57
2022/10/09 03:51:17;;;;;;;;;;;9.50;99.90;;;;;;5108338;27;40385;-57
2022/10/09 03:53:44;;;;;;;;;;;9.50;99.90;;;;;;5108819;27;37680;-57
2022/10/09 03:56:11;;;;;;;;;;;9.40;99.90;;;;;;5107751;27;36215;-57
2022/10/09 03:58:38;;;;;;;;;;;9.50;99.90;;;;;;5106258;27;38753;-57
2022/10/09 04:01:05;;;;;;;;;;;9.50;99.90;;;;;;5108202;27;38697;-58
2022/10/09 04:03:33;;;;;;;;;;;9.60;99.90;;;;;;5108676;27;37261;-57
2022/10/09 04:06:00;;;;;;;;;;;9.60;99.90;;;;;;5108665;27;36449;-58
2022/10/09 04:08:27;;;;;;;;;;;9.60;99.90;;;;;;5109196;27;37604;-57
2022/10/09 04:10:57;;;;;;;;;;;9.60;99.90;;;;;;5107984;27;38057;-57
2022/10/09 04:13:24;;;;;;;;;;;9.70;99.90;;;;;;5108019;27;38776;-57
2022/10/09 04:15:52;;;;;;;;;;;9.70;99.90;;;;;;5111825;27;36444;-58
2022/10/09 04:18:19;;;;;;;;;;;9.60;99.90;;;;;;5112328;27;37612;-57
2022/10/09 04:20:50;;;;;;;;;;;9.70;99.90;;;;;;5113065;27;37066;-57
2022/10/09 04:23:17;;;;;;;;;;;9.60;99.90;;;;;;5113055;27;37942;-57
2022/10/09 04:25:44;;;;;;;;;;;9.60;99.90;;;;;;5111250;27;36486;-57
2022/10/09 04:28:11;;;;;;;;;;;9.60;99.90;;;;;;5112054;27;37611;-57
2022/10/09 04:30:38;;;;;;;;;;;9.50;99.90;;;;;;5111430;27;38537;-57
2022/10/09 04:33:05;;;;;;;;;;;9.30;99.90;;;;;;5112083;27;37471;-57
2022/10/09 04:35:32;;;;;;;;;;;9.10;99.90;;;;;;5112871;27;37208;-57
2022/10/09 04:38:01;;;;;;;;;;;8.90;99.90;;;;;;5110827;27;36567;-58
2022/10/09 04:40:28;;;;;;;;;;;8.90;99.90;;;;;;5112147;27;38255;-57
2022/10/09 04:42:55;;;;;;;;;;;8.70;99.90;;;;;;5112586;27;37797;-58
2022/10/09 04:45:22;;;;;;;;;;;8.80;99.90;;;;;;5110168;27;36308;-58
2022/10/09 04:47:49;;;;;;;;;;;8.60;99.90;;;;;;5111710;27;37626;-58
2022/10/09 04:50:16;;;;;;;;;;;8.60;99.90;;;;;;5111652;27;38392;-58
2022/10/09 04:52:43;;;;;;;;;;;8.40;99.90;;;;;;5111963;27;38513;-58
2022/10/09 04:55:12;;;;;;;;;;;8.40;99.90;;;;;;5113038;27;36172;-58
2022/10/09 04:57:39;;;;;;;;;;;8.30;99.90;;;;;;5111263;27;37985;-57
2022/10/09 05:00:07;;;;;;;;;;;8.20;99.90;;;;;;5111761;27;37796;-58
2022/10/09 05:02:34;;;;;;;;;;;8.10;99.90;;;;;;5109897;27;37307;-58
2022/10/09 05:05:01;;;;;;;;;;;8.10;99.90;;;;;;5112007;27;36797;-57
2022/10/09 05:07:28;;;;;;;;;;;8.10;99.90;;;;;;5111495;27;38412;-58
2022/10/09 05:09:56;;;;;;;;;;;8.00;99.90;;;;;;5112255;27;38462;-57
2022/10/09 05:12:24;;;;;;;;;;;8.10;99.90;;;;;;5111223;27;36324;-58
2022/10/09 05:14:51;;;;;;;;;;;8.10;99.90;;;;;;5111691;27;35909;-58
2022/10/09 05:17:18;;;;;;;;;;;8.00;99.90;;;;;;5109728;27;37984;-58
2022/10/09 05:19:45;;;;;;;;;;;8.00;99.90;;;;;;5109407;27;38234;-58
2022/10/09 05:22:12;;;;;;;;;;;8.00;99.90;;;;;;5105401;27;39015;-59
2022/10/09 05:24:39;;;;;;;;;;;8.10;99.90;;;;;;4854207;27;36221;-60
2022/10/09 05:27:06;;;;;;;;;;;8.20;99.90;;;;;;4531157;27;37207;-59
2022/10/09 05:29:35;;;;;;;;;;;8.30;99.90;;;;;;5097823;27;40036;-59
2022/10/09 05:32:02;;;;;;;;;;;8.30;99.90;;;;;;4753839;27;41743;-59
2022/10/09 05:34:29;;;;;;;;;;;8.50;99.90;;;;;;5109878;27;36496;-59
2022/10/09 05:36:56;;;;;;;;;;;8.60;99.90;;;;;;5109473;27;37912;-59
2022/10/09 05:39:23;;;;;;;;;;;8.70;99.90;;;;;;5109224;27;38688;-59
2022/10/09 05:41:50;;;;;;;;;;;8.70;99.90;;;;;;5108985;27;40345;-59
2022/10/09 05:44:17;;;;;;;;;;;8.70;99.90;;;;;;5110754;27;37270;-59
2022/10/09 05:46:45;;;;;;;;;;;8.80;99.90;;;;;;5110647;27;39028;-59
2022/10/09 05:49:12;;;;;;;;;;;8.70;99.90;;;;;;5109673;27;40857;-59
2022/10/09 05:51:41;;;;;;;;;;;8.60;99.90;;;;;;5110678;27;38201;-59
2022/10/09 05:54:12;;;;;;;;;;;8.50;99.90;;;;;;5109873;27;36529;-58
2022/10/09 05:56:39;;;;;;;;;;;8.30;99.90;;;;;;5109052;27;39587;-59
2022/10/09 05:59:07;;;;;;;;;;;8.20;99.90;;;;;;5107665;27;38026;-59
2022/10/09 06:01:36;;;;;;;;;;;8.20;99.90;;;;;;5109705;27;37755;-60
2022/10/09 06:04:05;;;;;;;;;;;8.10;99.90;;;;;;5108245;27;36997;-59
2022/10/09 06:06:33;;;;;;;;;;;8.00;99.90;;;;;;5109199;27;36494;-59
2022/10/09 06:09:00;;;;;;;;;;;8.00;99.90;;;;;;5109348;27;40936;-59
2022/10/09 06:11:28;;;;;;;;;;;7.90;99.90;;;;;;5106591;27;38235;-59
2022/10/09 06:13:55;;;;;;;;;;;7.90;99.90;;;;;;5109509;27;36564;-59
2022/10/09 06:16:24;;;;;;;;;;;7.90;99.90;;;;;;5107689;27;40083;-59
2022/10/09 06:18:52;;;;;;;;;;;8.00;99.90;;;;;;5111124;27;39337;-59
2022/10/09 06:21:21;;;;;;;;;;;8.10;99.90;;;;;;5110518;27;37785;-58
2022/10/09 06:23:49;;;;;;;;;;;8.20;99.90;;;;;;5111453;27;36580;-58
2022/10/09 06:26:16;;;;;;;;;;;8.20;99.90;;;;;;5110546;27;37854;-59
2022/10/09 06:28:43;;;;;;;;;;;8.10;99.90;;;;;;5111177;27;38068;-59
2022/10/09 06:31:11;;;;;;;;;;;8.10;99.90;;;;;;5109898;27;37892;-59
2022/10/09 06:33:39;;;;;;;;;;;8.10;99.90;;;;;;5110130;27;36247;-59
2022/10/09 06:36:07;;;;;;;;;;;8.10;99.90;;;;;;5110970;27;39902;-59
2022/10/09 06:38:35;;;;;;;;;;;8.20;99.90;;;;;;5109731;27;38552;-58
2022/10/09 06:41:03;;;;;;;;;;;8.20;99.90;;;;;;5110578;27;36308;-57
2022/10/09 06:43:31;;;;;;;;;;;8.30;99.90;;;;;;5109747;27;36680;-58
2022/10/09 06:46:00;;;;;;;;;;;8.30;99.90;;;;;;5106994;27;38481;-58
2022/10/09 06:48:28;;;;;;;;;;;8.40;99.90;;;;;;5110048;27;39065;-59
2022/10/09 06:50:55;;;;;;;;;;;8.40;99.90;;;;;;5110045;27;37818;-58
2022/10/09 06:53:22;;;;;;;;;;;8.50;99.90;;;;;;5109276;27;36071;-59
2022/10/09 06:55:55;;;;;;;;;;;8.60;99.90;;;;;;5109001;27;37881;-58
2022/10/09 06:58:22;;;;;;;;;;;8.70;99.90;;;;;;5108984;27;38306;-58
2022/10/09 07:00:49;;;;;;;;;;;8.90;99.90;;;;;;5109809;27;38487;-58
2022/10/09 07:03:16;;;;;;;;;;;9.00;99.90;;;;;;5109938;27;36363;-58
2022/10/09 07:05:43;;;;;;;;;;;9.10;99.90;;;;;;5110168;27;37102;-58
2022/10/09 07:08:10;;;;;;;;;;;9.20;99.90;;;;;;5109145;27;38483;-59
2022/10/09 07:10:37;;;;;;;;;;;9.20;99.90;;;;;;5109830;27;36982;-59
2022/10/09 07:13:06;;;;;;;;;;;9.30;99.90;;;;;;5109438;27;36441;-59
2022/10/09 07:15:33;;;;;;;;;;;9.30;99.90;;;;;;5109353;27;38633;-58
2022/10/09 07:18:01;;;;;;;;;;;9.40;99.90;;;;;;5109554;27;38794;-58
2022/10/09 07:20:29;;;;;;;;;;;9.50;99.90;;;;;;5109570;27;36912;-58
2022/10/09 07:22:56;;;;;;;;;;;9.50;99.90;;;;;;5108104;27;36507;-58
2022/10/09 07:25:23;;;;;;;;;;;9.50;99.90;;;;;;5109698;27;38384;-58
2022/10/09 07:27:50;;;;;;;;;;;9.60;99.90;;;;;;5109507;27;38601;-59
2022/10/09 07:30:18;;;;;;;;;;;9.60;99.90;;;;;;5107923;27;38531;-59
2022/10/09 07:32:45;;;;;;;;;;;9.70;99.90;;;;;;5109453;27;39576;-57
2022/10/09 07:35:12;;;;;;;;;;;9.80;99.90;;;;;;5108653;27;39820;-58
2022/10/09 07:37:39;;;;;;;;;;;9.90;99.90;;;;;;5109202;27;38062;-58
2022/10/09 07:40:06;;;;;;;;;;;10.00;99.90;;;;;;5107627;27;39032;-58
2022/10/09 07:42:33;;;;;;;;;;;10.00;99.90;;;;;;5109435;27;34978;-58
2022/10/09 07:45:00;;;;;;;;;;;10.10;99.90;;;;;;5107067;27;39361;-58
2022/10/09 07:47:29;;;;;;;;;;;10.20;99.90;;;;;;5109633;27;36922;-58
2022/10/09 07:49:56;;;;;;;;;;;10.20;99.90;;;;;;5108377;27;36387;-58
2022/10/09 07:52:23;;;;;;;;;;;10.30;99.90;;;;;;5109565;27;37141;-58
2022/10/09 07:54:50;;;;;;;;;;;10.30;99.90;;;;;;5109226;27;39352;-59
2022/10/09 07:57:17;;;;;;;;;;;10.40;99.90;;;;;;5108587;27;38218;-59
2022/10/09 07:59:44;;;;;;;;;;;10.40;99.90;;;;;;5109445;27;39215;-59
2022/10/09 08:02:11;;;;;;;;;;;10.50;99.90;;;;;;5107449;27;37034;-59
2022/10/09 08:04:39;;;;;;;;;;;10.50;99.90;;;;;;5107363;27;36485;-59
2022/10/09 08:07:06;;;;;;;;;;;10.60;99.90;;;;;;5104941;27;37290;-59
2022/10/09 08:09:33;;;;;;;;;;;10.60;99.90;;;;;;5106612;27;36580;-59
2022/10/09 08:12:00;;;;;;;;;;;10.60;99.90;;;;;;5107483;27;36986;-59
2022/10/09 08:14:27;;;;;;;;;;;10.70;99.90;;;;;;5107886;27;37944;-59
2022/10/09 08:16:54;;;;;;;;;;;10.80;99.90;;;;;;5107212;27;38945;-59
2022/10/09 08:19:21;;;;;;;;;;;10.80;99.90;;;;;;5106760;27;37714;-59
2022/10/09 08:21:50;;;;;;;;;;;10.90;99.90;;;;;;5108495;27;36155;-59
2022/10/09 08:24:17;;;;;;;;;;;11.00;99.90;;;;;;5106774;27;36461;-59
2022/10/09 08:26:44;;;;;;;;;;;11.10;99.90;;;;;;5108682;27;38516;-59
2022/10/09 08:29:12;;;;;;;;;;;11.20;99.90;;;;;;5108311;27;38451;-57
2022/10/09 08:31:39;;;;;;;;;;;11.10;99.90;;;;;;5105484;27;37222;-57
2022/10/09 08:34:06;;;;;;;;;;;11.30;99.90;;;;;;5107667;27;37878;-58
2022/10/09 08:36:34;;;;;;;;;;;11.40;99.90;;;;;;5106951;27;38156;-58
2022/10/09 08:39:02;;;;;;;;;;;11.50;99.90;;;;;;5107231;27;37889;-58
2022/10/09 08:41:41;;;;;;;;;;;11.50;99.90;;;;;;5108232;27;37084;-57
2022/10/09 08:44:12;;;;;;;;;;;11.60;99.90;;;;;;5106073;27;38923;-58
2022/10/09 08:46:46;;;;;;;;;;;11.70;99.90;;;;;;5106040;27;38231;-58
2022/10/09 08:49:20;;;;;;;;;;;11.80;99.90;;;;;;5105671;27;37065;-58
2022/10/09 08:51:47;;;;;;;;;;;11.80;99.90;;;;;;5107874;27;37345;-58
2022/10/09 08:54:21;;;;;;;;;;;11.90;99.90;;;;;;5106470;27;39099;-58
2022/10/09 08:56:49;;;;;;;;;;;12.00;99.90;;;;;;5107401;27;38241;-58
2022/10/09 08:59:16;;;;;;;;;;;12.10;99.90;;;;;;5106256;27;36455;-58
2022/10/09 09:01:48;;;;;;;;;;;12.20;99.90;;;;;;5107864;27;38141;-58
2022/10/09 09:04:23;;;;;;;;;;;12.20;99.90;;;;;;5109724;27;38754;-58
2022/10/09 09:06:54;;;;;;;;;;;12.30;99.90;;;;;;5111946;27;39770;-58
2022/10/09 09:09:26;;;;;;;;;;;12.40;99.90;;;;;;5108383;27;37429;-58
2022/10/09 09:11:57;;;;;;;;;;;12.40;99.90;;;;;;5108983;27;37129;-58
2022/10/09 09:14:29;;;;;;;;;;;12.50;99.90;;;;;;5109075;27;37838;-58
2022/10/09 09:16:58;;;;;;;;;;;12.60;99.90;;;;;;5109647;27;39692;-58
2022/10/09 09:19:34;;;;;;;;;;;12.60;99.90;;;;;;5108830;27;37395;-58
2022/10/09 09:22:01;;;;;;;;;;;12.70;99.90;;;;;;5109986;27;36436;-58
2022/10/09 09:24:35;;;;;;;;;;;12.80;99.90;;;;;;5110191;27;39315;-58
2022/10/09 09:27:04;;;;;;;;;;;12.80;99.90;;;;;;5110113;27;38371;-58
2022/10/09 09:29:36;;;;;;;;;;;12.90;99.90;;;;;;5109684;27;37707;-58
2022/10/09 09:32:03;;;;;;;;;;;13.00;99.90;;;;;;5109933;27;36340;-58
2022/10/09 09:34:34;;;;;;;;;;;13.10;99.90;;;;;;5110958;27;38352;-58
2022/10/09 09:37:01;;;;;;;;;;;13.10;99.90;;;;;;5108790;27;38417;-58
2022/10/09 09:39:31;;;;;;;;;;;13.20;99.90;;;;;;5110537;27;37107;-58
2022/10/09 09:42:00;;;;;;;;;;;13.30;99.90;;;;;;5109025;27;35121;-58
2022/10/09 09:44:27;;;;;;;;;;;13.40;99.90;;;;;;5110638;27;37728;-58
2022/10/09 09:46:54;;;;;;;;;;;13.40;99.90;;;;;;5108124;27;37239;-57
2022/10/09 09:49:26;;;;;;;;;;;13.50;99.90;;;;;;5106152;27;38509;-58
2022/10/09 09:51:54;;;;;;;;;;;13.50;99.90;;;;;;5103807;27;35441;-59
2022/10/09 09:54:23;;;;;;;;;;;13.60;99.90;;;;;;5108611;27;37983;-58
2022/10/09 09:56:52;;;;;;;;;;;13.70;99.90;;;;;;5108439;27;38953;-58
2022/10/09 09:59:26;;;;;;;;;;;13.70;99.90;;;;;;5108170;27;37018;-59
2022/10/09 10:01:59;;;;;;;;;;;13.80;99.90;;;;;;5109146;27;36561;-58
2022/10/09 10:04:27;;;;;;;;;;;13.80;99.90;;;;;;5107472;27;36573;-59
2022/10/09 10:06:54;;;;;;;;;;;13.90;99.90;;;;;;5109008;27;37753;-57
2022/10/09 10:09:21;;;;;;;;;;;13.90;99.90;;;;;;5108583;27;39775;-58
2022/10/09 10:11:57;;;;;;;;;;;14.00;99.90;;;;;;5107672;27;35224;-58
2022/10/09 10:14:26;;;;;;;;;;;14.10;99.90;;;;;;5108742;27;38420;-59
2022/10/09 10:16:54;;;;;;;;;;;14.20;99.90;;;;;;5108391;27;38209;-59
2022/10/09 10:19:23;;;;;;;;;;;14.20;99.90;;;;;;5107783;27;37658;-59
2022/10/09 10:21:55;;;;;;;;;;;14.30;99.90;;;;;;5108969;27;37038;-59
2022/10/09 10:24:26;;;;;;;;;;;14.40;99.90;;;;;;5108236;27;37550;-60
2022/10/09 10:26:55;;;;;;;;;;;14.50;99.90;;;;;;5108980;27;40059;-59
2022/10/09 10:29:24;;;;;;;;;;;14.50;99.90;;;;;;5107909;27;40085;-59
2022/10/09 10:31:55;;;;;;;;;;;14.50;99.90;;;;;;5108574;27;36380;-59
2022/10/09 10:34:24;;;;;;;;;;;14.50;99.90;;;;;;5108331;27;38487;-59
2022/10/09 10:36:56;;;;;;;;;;;14.50;99.90;;;;;;5109438;27;41366;-59
2022/10/09 10:39:26;;;;;;;;;;;14.50;99.90;;;;;;5109920;27;36375;-59
2022/10/09 10:41:55;;;;;;;;;;;14.60;99.90;;;;;;5108033;27;36246;-59
2022/10/09 10:44:25;;;;;;;;;;;14.70;99.90;;;;;;5108990;27;39199;-59
2022/10/09 10:46:58;;;;;;;;;;;14.80;99.90;;;;;;5107473;27;38578;-59
2022/10/09 10:49:26;;;;;;;;;;;14.90;99.90;;;;;;5107682;27;37546;-59
2022/10/09 10:51:59;;;;;;;;;;;14.90;99.90;;;;;;5108602;27;36048;-59
2022/10/09 10:54:31;;;;;;;;;;;15.00;99.90;;;;;;5107037;27;37473;-59
2022/10/09 10:57:05;;;;;;;;;;;15.10;99.90;;;;;;5107795;27;39540;-58
2022/10/09 10:59:36;;;;;;;;;;;15.20;99.90;;;;;;5108231;27;39097;-59
2022/10/09 11:02:19;;;;;;;;;;;15.20;99.90;;;;;;5108891;27;37034;-59
2022/10/09 11:04:48;;;;;;;;;;;15.20;99.90;;;;;;5108272;27;37126;-59
2022/10/09 11:07:20;;;;;;;;;;;15.30;99.90;;;;;;5108115;27;40127;-59
2022/10/09 11:09:51;;;;;;;;;;;15.30;99.90;;;;;;5108106;27;37605;-60
2022/10/09 11:12:23;;;;;;;;;;;15.40;99.40;;;;;;5107397;27;37169;-59
2022/10/09 11:14:54;;;;;;;;;;;15.40;99.70;;;;;;5108465;27;37628;-59
2022/10/09 11:17:27;;;;;;;;;;;15.50;99.50;;;;;;5107460;27;39006;-59
2022/10/09 11:20:04;;;;;;;;;;;15.50;99.90;;;;;;5107721;27;36418;-59
2022/10/09 11:22:38;;;;;;;;;;;15.60;99.90;;;;;;5107397;27;36734;-59
2022/10/09 11:25:14;;;;;;;;;;;15.60;99.90;;;;;;5106790;27;39255;-59
2022/10/09 11:27:45;;;;;;;;;;;15.70;98.90;;;;;;5107492;27;38367;-59
2022/10/09 11:30:13;;;;;;;;;;;15.70;98.40;;;;;;5107982;27;38401;-59
2022/10/09 11:32:46;;;;;;;;;;;15.70;97.80;;;;;;5106519;27;36284;-59
2022/10/09 11:35:15;;;;;;;;;;;15.70;98.40;;;;;;5106409;27;37620;-59
2022/10/09 11:37:43;;;;;;;;;;;15.70;98.20;;;;;;5105869;27;38488;-59
2022/10/09 11:40:14;;;;;;;;;;;15.80;97.20;;;;;;5106721;27;38608;-59
2022/10/09 11:42:41;;;;;;;;;;;15.80;96.50;;;;;;5105333;27;36433;-59
2022/10/09 11:45:18;;;;;;;;;;;15.80;97.50;;;;;;5106303;27;37741;-59
2022/10/09 11:47:51;;;;;;;;;;;15.80;97.80;;;;;;5105029;27;38521;-59
2022/10/09 11:50:26;;;;;;;;;;;15.80;97.00;;;;;;5106081;27;36641;-59
2022/10/09 11:52:58;;;;;;;;;;;15.90;98.80;;;;;;5106524;27;35212;-59
2022/10/09 11:55:27;;;;;;;;;;;15.90;98.70;;;;;;5106561;27;38015;-59
2022/10/09 11:57:54;;;;;;;;;;;16.00;99.40;;;;;;5107260;27;38502;-60
2022/10/09 12:00:28;;;;;;;;;;;16.00;99.20;;;;;;5107458;27;37339;-59
2022/10/09 12:02:58;;;;;;;;;;;16.00;97.80;;;;;;5107260;27;36794;-58
2022/10/09 12:05:32;;;;;;;;;;;16.00;97.10;;;;;;5107453;27;39101;-59
2022/10/09 12:08:06;;;;;;;;;;;16.00;97.40;;;;;;5107065;27;39434;-59
2022/10/09 12:10:34;;;;;;;;;;;16.00;98.30;;;;;;5106835;27;36218;-59
2022/10/09 12:13:03;;;;;;;;;;;16.00;98.60;;;;;;5106308;27;38625;-60
2022/10/09 12:15:36;;;;;;;;;;;16.00;97.20;;;;;;5106666;27;38104;-59
2022/10/09 12:18:14;;;;;;;;;;;15.90;97.30;;;;;;5106588;27;39151;-59
2022/10/09 12:20:44;;;;;;;;;;;15.90;97.70;;;;;;5104889;27;37840;-59
2022/10/09 12:23:12;;;;;;;;;;;15.90;97.80;;;;;;5106369;27;37407;-59
2022/10/09 12:25:42;;;;;;;;;;;15.80;96.70;;;;;;5105523;27;38256;-59
2022/10/09 12:28:16;;;;;;;;;;;15.80;96.60;;;;;;5105446;27;39022;-59
2022/10/09 12:30:46;;;;;;;;;;;15.70;96.60;;;;;;5105458;27;38154;-60
2022/10/09 12:33:20;;;;;;;;;;;15.70;96.10;;;;;;5105833;27;36160;-59
2022/10/09 12:35:56;;;;;;;;;;;15.60;96.70;;;;;;5105519;27;38400;-59
2022/10/09 12:38:24;;;;;;;;;;;15.60;97.50;;;;;;5109257;27;37147;-58
2022/10/09 12:40:52;;;;;;;;;;;15.50;96.60;;;;;;5110223;27;36400;-59
2022/10/09 12:43:20;;;;;;;;;;;15.50;97.00;;;;;;5109308;27;36288;-59
2022/10/09 12:45:49;;;;;;;;;;;15.50;97.80;;;;;;5109348;27;39454;-60
2022/10/09 12:48:20;;;;;;;;;;;15.50;97.40;;;;;;5110789;27;38831;-59
2022/10/09 12:50:48;;;;;;;;;;;15.50;97.50;;;;;;5109231;27;37720;-60
2022/10/09 12:53:16;;;;;;;;;;;15.40;95.40;;;;;;5110359;27;37451;-59
2022/10/09 12:55:45;;;;;;;;;;;15.40;95.80;;;;;;5109067;27;37511;-59
2022/10/09 12:58:15;;;;;;;;;;;15.40;95.70;;;;;;5108308;27;38960;-59
2022/10/09 13:00:42;;;;;;;;;;;15.40;95.80;;;;;;5110031;27;36244;-59
2022/10/09 13:03:22;;;;;;;;;;;15.40;95.70;;;;;;5109626;27;36130;-59
2022/10/09 13:05:49;;;;;;;;;;;15.40;95.90;;;;;;5110124;27;37538;-59
2022/10/09 13:08:22;;;;;;;;;;;15.40;95.60;;;;;;5109553;27;39545;-59
2022/10/09 13:10:49;;;;;;;;;;;15.40;95.50;;;;;;5110461;27;36409;-58
2022/10/09 13:13:19;;;;;;;;;;;15.30;95.90;;;;;;5109974;27;36932;-59
2022/10/09 13:15:57;;;;;;;;;;;15.30;95.60;;;;;;5109842;27;38603;-60
2022/10/09 13:18:25;;;;;;;;;;;15.30;95.90;;;;;;5110350;27;38979;-59
2022/10/09 13:20:59;;;;;;;;;;;15.30;96.00;;;;;;5108939;27;38278;-59
2022/10/09 13:23:27;;;;;;;;;;;15.40;95.60;;;;;;5110318;27;35252;-60
2022/10/09 13:25:54;;;;;;;;;;;15.30;95.00;;;;;;5110128;27;36558;-59
2022/10/09 13:28:22;;;;;;;;;;;15.30;95.80;;;;;;5109358;27;38596;-59
2022/10/09 13:30:49;;;;;;;;;;;15.30;95.10;;;;;;5109115;27;36400;-60
2022/10/09 13:33:16;;;;;;;;;;;15.30;94.80;;;;;;5109762;27;37016;-60
2022/10/09 13:35:45;;;;;;;;;;;15.30;95.40;;;;;;5109165;27;37540;-59
2022/10/09 13:38:13;;;;;;;;;;;15.20;95.50;;;;;;5110468;27;38509;-59
2022/10/09 13:40:40;;;;;;;;;;;15.20;95.30;;;;;;5109484;27;36326;-59
2022/10/09 13:43:07;;;;;;;;;;;15.20;95.20;;;;;;5109452;27;37228;-60
2022/10/09 13:45:34;;;;;;;;;;;15.20;95.20;;;;;;5110029;27;36497;-59
2022/10/09 13:48:01;;;;;;;;;;;15.20;94.90;;;;;;5109178;27;39809;-59
2022/10/09 13:50:28;;;;;;;;;;;15.20;94.70;;;;;;5108458;27;38276;-59
2022/10/09 13:52:56;;;;;;;;;;;15.20;94.70;;;;;;5109947;27;36823;-59
2022/10/09 13:55:23;;;;;;;;;;;15.10;95.50;;;;;;5109223;27;38807;-59
2022/10/09 13:57:50;;;;;;;;;;;15.10;95.80;;;;;;5107947;27;38422;-59
2022/10/09 14:00:17;;;;;;;;;;;15.10;95.40;;;;;;5108860;27;37193;-59
2022/10/09 14:02:44;;;;;;;;;;;15.10;94.60;;;;;;5108489;27;36298;-59
2022/10/09 14:05:12;;;;;;;;;;;15.00;95.00;;;;;;5108636;27;41000;-58
2022/10/09 14:07:39;;;;;;;;;;;15.00;94.60;;;;;;5108526;27;38621;-59
2022/10/09 14:10:08;;;;;;;;;;;15.00;94.90;;;;;;5105306;27;37408;-59
2022/10/09 14:12:35;;;;;;;;;;;15.00;94.80;;;;;;5107364;27;37072;-59
2022/10/09 14:15:02;;;;;;;;;;;15.10;94.70;;;;;;5107197;27;38080;-60
2022/10/09 14:17:29;;;;;;;;;;;15.10;94.70;;;;;;5107584;27;39626;-59
2022/10/09 14:19:56;;;;;;;;;;;15.00;94.80;;;;;;5106333;27;37083;-59
2022/10/09 14:22:23;;;;;;;;;;;15.00;95.40;;;;;;5106179;27;37106;-60
2022/10/09 14:24:50;;;;;;;;;;;15.00;95.50;;;;;;5108183;27;37848;-59
2022/10/09 14:27:19;;;;;;;;;;;14.90;94.70;;;;;;5107418;27;39375;-59
2022/10/09 14:29:47;;;;;;;;;;;14.90;95.30;;;;;;5107978;27;38810;-59